createdAt,value
2018-08-24T00:01:43.627Z,42.5
2018-08-24T00:03:59.899Z,41.0
2018-08-24T00:05:00.692Z,41.5
2018-08-24T00:06:01.480Z,42.1
2018-08-24T00:07:02.290Z,40.5
2018-08-24T00:08:03.101Z,40.5
2018-08-24T00:09:03.907Z,40.1
2018-08-24T00:10:04.691Z,40.0
2018-08-24T00:11:05.526Z,39.6
2018-08-24T00:12:06.319Z,39.2
2018-08-24T00:13:07.417Z,38.5
2018-08-24T00:14:08.413Z,39.3
2018-08-24T00:15:09.131Z,39.1
2018-08-24T00:17:25.407Z,36.7
2018-08-24T00:18:26.243Z,35.8
2018-08-24T00:20:42.546Z,34.8
2018-08-24T00:21:43.320Z,33.9
2018-08-24T00:22:44.126Z,34.4
2018-08-24T00:23:44.982Z,33.0
2018-08-24T00:24:45.765Z,31.4
2018-08-24T00:25:46.554Z,31.6
2018-08-24T00:26:47.344Z,30.7
2018-08-24T00:27:48.129Z,30.8
2018-08-24T00:28:48.871Z,31.6
2018-08-24T00:29:49.632Z,31.5
2018-08-24T00:30:50.372Z,31.5
2018-08-24T00:31:51.250Z,30.4
2018-08-24T00:34:07.447Z,30.9
2018-08-24T00:35:08.213Z,27.8
2018-08-24T00:36:09.039Z,27.7
2018-08-24T00:37:09.821Z,29.4
2018-08-24T00:39:17.287Z,29.3
2018-08-24T00:40:18.127Z,30.4
2018-08-24T00:41:18.937Z,29.3
2018-08-24T00:42:19.722Z,30.4
2018-08-24T00:43:21.724Z,29.4
2018-08-24T00:45:29.227Z,31.6
2018-08-24T00:46:30.093Z,31.3
2018-08-24T00:47:30.898Z,31.4
2018-08-24T00:48:31.679Z,29.5
2018-08-24T00:50:31.190Z,30.5
2018-08-24T00:51:32.307Z,33.3
2018-08-24T00:52:33.109Z,31.1
2018-08-24T00:53:34.321Z,30.9
2018-08-24T00:54:35.081Z,31.5
2018-08-24T00:55:35.875Z,31.2
2018-08-24T00:56:36.663Z,31.5
2018-08-24T00:57:37.441Z,31.5
2018-08-24T00:58:38.233Z,33.0
2018-08-24T00:59:39.302Z,34.0
2018-08-24T01:00:40.117Z,32.7
2018-08-24T01:01:40.931Z,32.4
2018-08-24T01:02:41.923Z,33.7
2018-08-24T01:03:43.090Z,35.3
2018-08-24T01:04:43.900Z,36.8
2018-08-24T01:06:27.370Z,35.3
2018-08-24T01:07:28.215Z,37.3
2018-08-24T01:08:29.295Z,36.8
2018-08-24T01:09:30.081Z,34.9
2018-08-24T01:10:31.116Z,33.7
2018-08-24T01:11:31.926Z,33.4
2018-08-24T01:12:32.750Z,33.2
2018-08-24T01:13:33.557Z,37.0
2018-08-24T01:14:34.339Z,35.7
2018-08-24T01:16:51.574Z,36.7
2018-08-24T01:17:52.355Z,36.5
2018-08-24T01:18:53.171Z,37.2
2018-08-24T01:19:53.957Z,37.5
2018-08-24T01:20:54.811Z,38.7
2018-08-24T01:21:55.626Z,38.6
2018-08-24T01:22:57.446Z,40.3
2018-08-24T01:23:59.434Z,40.2
2018-08-24T01:25:00.190Z,40.9
2018-08-24T01:26:01.275Z,41.9
2018-08-24T01:27:02.103Z,43.5
2018-08-24T01:28:02.869Z,44.0
2018-08-24T01:30:19.202Z,45.4
2018-08-24T01:31:20.256Z,45.9
2018-08-24T01:32:21.047Z,46.1
2018-08-24T01:33:21.815Z,45.5
2018-08-24T01:34:22.567Z,47.2
2018-08-24T01:35:23.294Z,46.3
2018-08-24T01:36:24.025Z,47.1
2018-08-24T01:37:25.056Z,49.3
2018-08-24T01:39:41.391Z,49.5
2018-08-24T01:40:42.428Z,51.2
2018-08-24T01:41:43.143Z,52.1
2018-08-24T01:42:43.880Z,52.7
2018-08-24T01:45:00.454Z,54.5
2018-08-24T01:46:01.427Z,54.2
2018-08-24T01:47:02.175Z,54.4
2018-08-24T01:48:02.925Z,55.3
2018-08-24T01:49:03.688Z,54.9
2018-08-24T01:50:04.424Z,53.7
2018-08-24T01:51:05.453Z,53.1
2018-08-24T01:52:06.249Z,52.4
2018-08-24T01:53:06.974Z,51.9
2018-08-24T01:54:07.700Z,53.3
2018-08-24T01:55:08.443Z,51.8
2018-08-24T01:56:09.170Z,53.3
2018-08-24T01:57:09.875Z,53.6
2018-08-24T01:58:10.724Z,54.0
2018-08-24T01:59:11.554Z,55.6
2018-08-24T02:00:12.252Z,56.5
2018-08-24T02:01:12.977Z,56.8
2018-08-24T02:02:13.727Z,56.8
2018-08-24T02:03:14.447Z,56.2
2018-08-24T02:04:15.544Z,55.8
2018-08-24T02:05:16.408Z,56.5
2018-08-24T02:06:17.120Z,54.8
2018-08-24T02:07:18.106Z,54.9
2018-08-24T02:08:18.906Z,55.2
2018-08-24T02:09:19.678Z,54.2
2018-08-24T02:10:20.413Z,53.7
2018-08-24T02:11:21.187Z,53.6
2018-08-24T02:12:21.909Z,53.7
2018-08-24T02:13:22.641Z,53.8
2018-08-24T02:14:23.417Z,54.1
2018-08-24T02:46:47.805Z,40.4
2018-08-24T02:47:50.123Z,40.7
2018-08-24T02:59:44.770Z,41.8
2018-08-24T03:03:03.406Z,39.4
2018-08-24T03:04:52.603Z,37.0
2018-08-24T03:06:37.135Z,37.5
2018-08-24T03:08:53.960Z,38.5
2018-08-24T03:13:49.776Z,37.9
2018-08-24T03:14:50.700Z,36.8
2018-08-24T03:16:46.776Z,32.6
2018-08-24T03:18:42.740Z,32.2
2018-08-24T03:20:46.429Z,31.6
2018-08-24T03:22:30.128Z,31.6
2018-08-24T03:24:22.125Z,31.4
2018-08-24T03:25:23.761Z,31.6
2018-08-24T03:26:24.916Z,32.4
2018-08-24T03:30:26.368Z,34.3
2018-08-24T03:33:08.741Z,40.3
2018-08-24T03:34:10.360Z,41.2
2018-08-24T03:35:11.210Z,43.4
2018-08-24T03:37:15.107Z,43.9
2018-08-24T03:38:16.050Z,44.3
2018-08-24T03:39:17.050Z,44.0
2018-08-24T03:40:17.873Z,45.9
2018-08-24T03:41:19.347Z,47.1
2018-08-24T03:42:22.002Z,47.4
2018-08-24T03:45:00.577Z,47.5
2018-08-24T03:46:01.548Z,47.1
2018-08-24T03:47:02.428Z,46.5
2018-08-24T03:48:54.063Z,46.3
2018-08-24T03:50:45.776Z,46.2
2018-08-24T03:51:46.603Z,47.0
2018-08-24T03:52:47.476Z,45.4
2018-08-24T03:53:48.168Z,45.1
2018-08-24T03:54:49.185Z,45.3
2018-08-24T03:55:50.152Z,47.2
2018-08-24T03:58:35.492Z,54.2
2018-08-24T03:59:36.492Z,53.9
2018-08-24T04:00:37.595Z,54.1
2018-08-24T04:01:38.393Z,54.7
2018-08-24T04:02:39.199Z,55.2
2018-08-24T04:03:39.980Z,56.5
2018-08-24T04:04:40.745Z,57.8
2018-08-24T04:05:41.695Z,57.8
2018-08-24T04:06:42.546Z,60.4
2018-08-24T04:07:43.322Z,59.7
2018-08-24T04:08:44.119Z,62.6
2018-08-24T04:09:44.879Z,65.0
2018-08-24T04:10:45.684Z,65.1
2018-08-24T04:11:46.591Z,64.5
2018-08-24T04:12:47.359Z,63.9
2018-08-24T04:13:48.319Z,64.0
2018-08-24T04:14:49.292Z,64.0
2018-08-24T04:15:50.006Z,65.0
2018-08-24T04:18:06.214Z,64.5
2018-08-24T04:19:06.948Z,64.8
2018-08-24T04:20:07.926Z,64.6
2018-08-24T04:21:08.639Z,64.3
2018-08-24T04:22:09.377Z,63.5
2018-08-24T04:23:10.363Z,62.5
2018-08-24T04:24:11.092Z,62.3
2018-08-24T04:25:12.084Z,60.9
2018-08-24T04:26:12.886Z,60.5
2018-08-24T04:27:13.540Z,60.5
2018-08-24T04:28:14.256Z,58.9
2018-08-24T04:29:15.032Z,58.1
2018-08-24T04:30:15.760Z,57.9
2018-08-24T04:31:16.736Z,58.5
2018-08-24T04:32:17.470Z,56.7
2018-08-24T04:33:18.204Z,57.3
2018-08-24T04:34:18.937Z,57.5
2018-08-24T04:35:19.683Z,59.0
2018-08-24T04:36:20.679Z,57.7
2018-08-24T04:37:21.659Z,57.4
2018-08-24T04:38:22.377Z,57.5
2018-08-24T04:39:23.151Z,58.7
2018-08-24T04:40:23.941Z,60.4
2018-08-24T04:41:24.604Z,60.8
2018-08-24T04:42:25.357Z,62.1
2018-08-24T04:43:26.101Z,61.2
2018-08-24T04:44:27.129Z,61.9
2018-08-24T04:45:27.946Z,63.0
2018-08-24T04:46:28.862Z,63.6
2018-08-24T04:47:29.589Z,64.8
2018-08-24T04:48:30.578Z,66.0
2018-08-24T04:49:31.317Z,66.0
2018-08-24T04:50:32.322Z,66.4
2018-08-24T04:51:33.194Z,71.1
2018-08-24T04:52:33.815Z,72.0
2018-08-24T04:53:34.574Z,71.3
2018-08-24T04:54:35.298Z,72.8
2018-08-24T04:55:36.023Z,72.9
2018-08-24T04:56:36.808Z,72.0
2018-08-24T04:57:37.535Z,72.4
2018-08-24T04:58:38.272Z,71.4
2018-08-24T04:59:39.008Z,71.6
2018-08-24T05:00:39.752Z,71.0
2018-08-24T05:01:40.477Z,72.4
2018-08-24T05:02:41.194Z,71.3
2018-08-24T05:03:41.924Z,71.2
2018-08-24T05:04:42.639Z,73.0
2018-08-24T05:05:43.422Z,75.3
2018-08-24T05:06:44.079Z,75.5
2018-08-24T05:07:44.815Z,76.0
2018-08-24T05:08:45.536Z,76.5
2018-08-24T05:09:46.265Z,78.4
2018-08-24T05:10:47.004Z,78.7
2018-08-24T05:11:47.725Z,78.5
2018-08-24T05:12:48.695Z,78.7
2018-08-24T05:13:49.437Z,78.5
2018-08-24T05:14:50.174Z,79.1
2018-08-24T05:15:51.184Z,78.4
2018-08-24T05:16:51.924Z,79.3
2018-08-24T05:17:52.912Z,78.4
2018-08-24T05:18:53.927Z,78.4
2018-08-24T05:19:54.668Z,77.0
2018-08-24T05:20:55.411Z,77.8
2018-08-24T05:21:56.149Z,77.7
2018-08-24T05:22:56.869Z,78.3
2018-08-24T05:23:57.592Z,78.0
2018-08-24T05:24:58.315Z,76.7
2018-08-24T05:25:59.333Z,76.8
2018-08-24T05:27:00.055Z,76.2
2018-08-24T05:28:00.798Z,76.0
2018-08-24T05:29:01.515Z,76.3
2018-08-24T05:30:02.549Z,76.6
2018-08-24T05:31:03.366Z,76.9
2018-08-24T05:32:04.097Z,76.6
2018-08-24T05:33:04.819Z,77.6
2018-08-24T05:34:05.534Z,78.0
2018-08-24T05:35:06.547Z,78.6
2018-08-24T05:36:07.600Z,79.8
2018-08-24T05:37:08.324Z,80.2
2018-08-24T05:38:10.927Z,81.6
2018-08-24T05:39:31.468Z,83.1
2018-08-24T05:40:32.197Z,83.9
2018-08-24T05:41:33.304Z,83.1
2018-08-24T05:42:33.961Z,84.1
2018-08-24T05:43:34.944Z,84.5
2018-08-24T05:44:35.669Z,85.4
2018-08-24T05:45:36.394Z,85.5
2018-08-24T05:46:37.177Z,88.4
2018-08-24T05:47:37.913Z,88.1
2018-08-24T05:48:38.674Z,87.6
2018-08-24T05:49:39.358Z,88.2
2018-08-24T05:50:40.083Z,88.5
2018-08-24T05:51:40.881Z,89.4
2018-08-24T05:52:41.610Z,89.0
2018-08-24T05:53:42.325Z,89.7
2018-08-24T05:54:43.067Z,89.5
2018-08-24T05:55:43.812Z,89.9
2018-08-24T05:56:44.538Z,88.9
2018-08-24T05:57:45.270Z,89.4
2018-08-24T05:58:46.015Z,88.9
2018-08-24T05:59:46.723Z,88.0
2018-08-24T06:00:47.481Z,88.4
2018-08-24T06:01:48.215Z,88.4
2018-08-24T06:02:49.188Z,87.9
2018-08-24T06:03:50.235Z,87.7
2018-08-24T06:04:50.968Z,86.7
2018-08-24T06:05:51.741Z,87.4
2018-08-24T06:06:52.452Z,87.0
2018-08-24T06:07:53.172Z,85.6
2018-08-24T06:08:54.429Z,86.6
2018-08-24T06:09:55.157Z,86.1
2018-08-24T06:10:56.125Z,88.2
2018-08-24T06:11:56.866Z,88.4
2018-08-24T06:12:57.608Z,87.3
2018-08-24T06:13:58.403Z,91.9
2018-08-24T06:14:59.131Z,89.0
2018-08-24T06:15:59.985Z,87.3
2018-08-24T06:17:00.585Z,88.5
2018-08-24T06:18:01.360Z,89.3
2018-08-24T06:19:02.332Z,88.8
2018-08-24T06:20:03.059Z,88.7
2018-08-24T06:21:03.841Z,88.5
2018-08-24T06:22:04.570Z,88.9
2018-08-24T06:23:05.315Z,88.8
2018-08-24T06:24:06.028Z,87.1
2018-08-24T06:25:06.791Z,87.9
2018-08-24T06:26:07.595Z,90.3
2018-08-24T06:27:08.332Z,92.0
2018-08-24T06:28:09.076Z,90.1
2018-08-24T06:29:09.823Z,89.5
2018-08-24T06:30:10.546Z,90.5
2018-08-24T06:31:11.337Z,91.4
2018-08-24T06:32:12.072Z,91.4
2018-08-24T06:33:13.056Z,90.1
2018-08-24T06:34:13.782Z,91.5
2018-08-24T06:35:14.504Z,91.9
2018-08-24T06:36:15.243Z,92.7
2018-08-24T06:37:15.965Z,95.5
2018-08-24T06:38:16.970Z,95.2
2018-08-24T06:39:17.942Z,95.3
2018-08-24T06:40:18.667Z,95.7
2018-08-24T06:41:19.392Z,96.9
2018-08-24T06:42:20.128Z,96.0
2018-08-24T06:43:20.886Z,96.2
2018-08-24T06:44:21.614Z,96.8
2018-08-24T06:45:22.353Z,97.7
2018-08-24T06:46:23.105Z,97.8
2018-08-24T06:47:23.996Z,99.2
2018-08-24T06:48:24.706Z,98.2
2018-08-24T06:49:25.722Z,99.0
2018-08-24T06:50:26.454Z,98.9
2018-08-24T06:51:27.465Z,97.8
2018-08-24T06:53:29.285Z,100.0
2018-08-24T06:54:29.947Z,99.5
2018-08-24T06:55:30.674Z,98.9
2018-08-24T06:56:31.418Z,99.6
2018-08-24T06:57:32.148Z,100.0
2018-08-24T06:58:32.890Z,98.8
2018-08-24T06:59:33.618Z,99.6
2018-08-24T07:00:34.347Z,99.1
2018-08-24T07:01:35.084Z,98.4
2018-08-24T07:02:35.818Z,98.8
2018-08-24T07:03:36.817Z,98.3
2018-08-24T07:04:37.796Z,98.5
2018-08-24T07:05:38.547Z,96.2
2018-08-24T07:06:39.270Z,96.1
2018-08-24T07:07:40.015Z,95.7
2018-08-24T07:08:41.309Z,95.6
2018-08-24T07:09:42.037Z,96.2
2018-08-24T07:10:43.022Z,96.5
2018-08-24T07:11:43.751Z,95.7
2018-08-24T07:12:44.579Z,95.8
2018-08-24T07:13:45.260Z,97.4
2018-08-24T07:14:45.995Z,96.5
2018-08-24T07:15:46.718Z,96.1
2018-08-24T07:16:47.441Z,95.7
2018-08-24T07:17:48.174Z,97.3
2018-08-24T07:18:49.214Z,96.2
2018-08-24T07:19:49.952Z,95.9
2018-08-24T07:20:50.698Z,94.9
2018-08-24T07:21:51.708Z,95.3
2018-08-24T07:22:52.427Z,93.8
2018-08-24T07:23:53.434Z,93.6
2018-08-24T07:24:54.154Z,93.7
2018-08-24T07:25:54.914Z,94.6
2018-08-24T07:26:55.641Z,93.9
2018-08-24T07:27:56.374Z,95.6
2018-08-24T07:28:57.107Z,95.5
2018-08-24T07:29:57.834Z,95.7
2018-08-24T07:30:58.581Z,94.8
2018-08-24T07:31:59.309Z,94.0
2018-08-24T07:33:00.040Z,93.7
2018-08-24T07:34:00.771Z,95.4
2018-08-24T07:35:01.722Z,95.6
2018-08-24T07:36:02.442Z,95.8
2018-08-24T07:37:03.166Z,95.9
2018-08-24T07:38:04.141Z,98.4
2018-08-24T07:39:04.854Z,97.1
2018-08-24T07:40:05.592Z,97.0
2018-08-24T07:41:06.577Z,96.2
2018-08-24T07:42:07.553Z,96.1
2018-08-24T07:43:08.331Z,95.3
2018-08-24T07:44:09.070Z,96.2
2018-08-24T07:45:09.809Z,95.2
2018-08-24T07:46:10.547Z,95.8
2018-08-24T07:47:11.278Z,96.1
2018-08-24T07:48:12.072Z,95.7
2018-08-24T07:49:13.054Z,94.2
2018-08-24T07:50:14.039Z,95.4
2018-08-24T07:51:14.769Z,93.6
2018-08-24T07:52:15.506Z,92.6
2018-08-24T07:53:16.542Z,93.3
2018-08-24T07:54:17.278Z,92.3
2018-08-24T07:55:18.025Z,92.1
2018-08-24T07:56:18.758Z,91.4
2018-08-24T07:57:19.507Z,91.1
2018-08-24T07:58:20.248Z,88.0
2018-08-24T07:59:20.984Z,90.2
2018-08-24T08:00:21.969Z,88.8
2018-08-24T08:01:22.701Z,88.7
2018-08-24T08:02:23.430Z,87.5
2018-08-24T08:03:24.171Z,88.5
2018-08-24T08:04:25.225Z,89.7
2018-08-24T08:05:26.010Z,88.7
2018-08-24T08:06:26.939Z,89.1
2018-08-24T08:07:27.672Z,89.0
2018-08-24T08:08:28.396Z,90.2
2018-08-24T08:09:29.174Z,88.8
2018-08-24T08:10:29.897Z,88.5
2018-08-24T08:11:30.648Z,87.4
2018-08-24T08:12:31.391Z,86.7
2018-08-24T08:13:32.105Z,85.8
2018-08-24T08:14:32.821Z,85.6
2018-08-24T08:15:33.793Z,87.4
2018-08-24T08:16:34.773Z,86.7
2018-08-24T08:17:35.508Z,86.8
2018-08-24T08:18:36.314Z,86.9
2018-08-24T08:19:36.974Z,87.4
2018-08-24T08:20:37.710Z,87.7
2018-08-24T08:21:38.506Z,88.7
2018-08-24T08:22:39.237Z,88.0
2018-08-24T08:23:39.988Z,88.2
2018-08-24T08:24:40.781Z,88.5
2018-08-24T08:25:41.462Z,89.8
2018-08-24T08:26:42.244Z,89.0
2018-08-24T08:27:42.997Z,89.4
2018-08-24T08:28:43.975Z,89.6
2018-08-24T08:29:44.693Z,91.5
2018-08-24T08:30:45.690Z,94.0
2018-08-24T08:31:48.689Z,93.9
2018-08-24T08:32:49.671Z,93.9
2018-08-24T08:33:50.756Z,96.3
2018-08-24T08:34:51.754Z,95.7
2018-08-24T08:35:52.876Z,96.2
2018-08-24T08:36:55.020Z,97.6
2018-08-24T08:37:56.375Z,97.3
2018-08-24T08:38:57.896Z,97.6
2018-08-24T08:39:58.790Z,97.4
2018-08-24T08:41:00.459Z,95.7
2018-08-24T08:42:01.201Z,94.5
2018-08-24T08:43:01.951Z,94.8
2018-08-24T08:44:02.692Z,94.9
2018-08-24T08:45:03.447Z,94.3
2018-08-24T08:46:04.169Z,94.6
2018-08-24T08:47:04.903Z,93.2
2018-08-24T08:48:05.886Z,95.7
2018-08-24T08:49:06.621Z,96.1
2018-08-24T08:50:07.349Z,97.5
2018-08-24T08:51:08.080Z,96.4
2018-08-24T08:52:09.125Z,96.7
2018-08-24T08:53:10.106Z,95.4
2018-08-24T08:54:10.838Z,94.6
2018-08-24T08:55:11.580Z,93.9
2018-08-24T08:56:12.336Z,94.8
2018-08-24T08:57:13.577Z,94.3
2018-08-24T08:58:14.309Z,93.4
2018-08-24T08:59:15.043Z,93.7
2018-08-24T09:00:16.074Z,93.9
2018-08-24T09:01:17.073Z,94.7
2018-08-24T09:02:17.865Z,94.9
2018-08-24T09:03:18.857Z,94.3
2018-08-24T09:04:19.586Z,94.0
2018-08-24T09:05:20.577Z,92.5
2018-08-24T09:06:21.340Z,92.0
2018-08-24T09:07:22.113Z,92.6
2018-08-24T09:08:22.837Z,94.5
2018-08-24T09:09:23.827Z,93.1
2018-08-24T09:10:24.573Z,93.6
2018-08-24T09:11:25.302Z,93.5
2018-08-24T09:12:26.033Z,92.6
2018-08-24T09:13:26.774Z,92.1
2018-08-24T09:14:27.529Z,91.6
2018-08-24T09:15:28.253Z,91.3
2018-08-24T09:16:29.007Z,91.0
2018-08-24T09:17:29.742Z,90.2
2018-08-24T09:18:30.490Z,89.6
2018-08-24T09:19:31.218Z,91.2
2018-08-24T09:20:31.958Z,90.8
2018-08-24T09:21:32.682Z,90.0
2018-08-24T09:22:33.430Z,93.3
2018-08-24T09:23:34.159Z,93.1
2018-08-24T09:24:35.135Z,93.8
2018-08-24T09:25:35.888Z,93.3
2018-08-24T09:26:36.600Z,93.2
2018-08-24T09:27:37.352Z,91.0
2018-08-24T09:28:38.087Z,88.8
2018-08-24T09:29:38.842Z,88.2
2018-08-24T09:30:39.581Z,85.0
2018-08-24T09:31:40.601Z,78.1
2018-08-24T09:32:41.490Z,77.1
2018-08-24T09:33:42.069Z,71.3
2018-08-24T09:34:42.794Z,72.8
2018-08-24T09:35:43.532Z,71.2
2018-08-24T09:36:44.316Z,72.9
2018-08-24T09:37:45.045Z,76.5
2018-08-24T09:38:45.776Z,76.6
2018-08-24T09:39:46.512Z,76.5
2018-08-24T09:40:47.259Z,73.5
2018-08-24T09:41:48.055Z,73.6
2018-08-24T09:42:48.779Z,74.5
2018-08-24T09:43:49.503Z,76.5
2018-08-24T09:44:50.253Z,76.4
2018-08-24T09:45:50.981Z,79.3
2018-08-24T09:46:51.715Z,79.4
2018-08-24T09:47:52.446Z,76.9
2018-08-24T09:48:53.177Z,80.6
2018-08-24T09:49:53.923Z,86.5
2018-08-24T09:50:54.671Z,86.5
2018-08-24T09:51:55.407Z,92.2
2018-08-24T09:52:56.140Z,92.2
2018-08-24T09:53:56.865Z,94.5
2018-08-24T09:54:57.603Z,95.1
2018-08-24T09:55:58.327Z,94.7
2018-08-24T09:56:59.156Z,96.2
2018-08-24T09:57:59.798Z,98.6
2018-08-24T09:59:01.047Z,99.1
2018-08-24T10:00:01.774Z,100.0
2018-08-24T10:01:02.756Z,100.0
2018-08-24T10:02:03.505Z,100.0
2018-08-24T10:03:04.293Z,100.0
2018-08-24T10:04:05.284Z,100.0
2018-08-24T10:05:06.030Z,100.0
2018-08-24T10:06:06.756Z,100.0
2018-08-24T10:07:07.739Z,100.0
2018-08-24T10:08:08.717Z,100.0
2018-08-24T10:09:09.458Z,100.0
2018-08-24T10:10:10.186Z,100.0
2018-08-24T10:11:10.923Z,100.0
2018-08-24T10:12:11.652Z,100.0
2018-08-24T10:13:12.422Z,100.0
2018-08-24T10:14:13.129Z,100.0
2018-08-24T10:15:13.907Z,100.0
2018-08-24T10:16:14.646Z,100.0
2018-08-24T10:17:15.382Z,100.0
2018-08-24T10:18:16.378Z,100.0
2018-08-24T10:19:17.099Z,100.0
2018-08-24T10:20:17.851Z,100.0
2018-08-24T10:21:18.576Z,100.0
2018-08-24T10:22:19.304Z,100.0
2018-08-24T10:23:20.032Z,100.0
2018-08-24T10:24:20.762Z,100.0
2018-08-24T10:25:21.740Z,100.0
2018-08-24T10:26:22.546Z,100.0
2018-08-24T10:27:23.519Z,100.0
2018-08-24T10:28:24.241Z,98.8
2018-08-24T10:29:25.096Z,96.2
2018-08-24T10:30:25.702Z,93.4
2018-08-24T10:31:26.446Z,92.6
2018-08-24T10:32:27.165Z,86.3
2018-08-24T10:33:27.901Z,81.2
2018-08-24T10:34:28.654Z,79.1
2018-08-24T10:35:29.378Z,79.5
2018-08-24T10:36:30.105Z,77.4
2018-08-24T10:37:30.834Z,72.9
2018-08-24T10:38:31.565Z,74.6
2018-08-24T10:39:32.293Z,76.7
2018-08-24T10:40:33.043Z,77.7
2018-08-24T10:41:33.789Z,74.6
2018-08-24T10:42:34.572Z,73.0
2018-08-24T10:43:35.250Z,74.3
2018-08-24T10:44:35.990Z,72.5
2018-08-24T10:45:36.724Z,69.8
2018-08-24T10:46:37.771Z,67.9
2018-08-24T10:47:38.511Z,66.0
2018-08-24T10:48:39.247Z,68.1
2018-08-24T10:49:39.985Z,68.4
2018-08-24T10:50:40.709Z,68.1
2018-08-24T10:51:41.511Z,66.6
2018-08-24T10:52:42.232Z,64.9
2018-08-24T10:53:42.970Z,63.9
2018-08-24T10:54:43.714Z,65.8
2018-08-24T10:55:44.497Z,66.0
2018-08-24T10:56:45.471Z,65.6
2018-08-24T10:57:46.200Z,65.7
2018-08-24T10:58:46.944Z,65.1
2018-08-24T10:59:47.670Z,64.3
2018-08-24T11:00:48.406Z,63.3
2018-08-24T11:01:49.127Z,61.9
2018-08-24T11:02:49.907Z,61.5
2018-08-24T11:03:50.635Z,61.5
2018-08-24T11:04:51.360Z,62.3
2018-08-24T11:05:52.094Z,62.3
2018-08-24T11:06:52.824Z,62.3
2018-08-24T11:07:53.809Z,62.1
2018-08-24T11:08:54.542Z,61.6
2018-08-24T11:09:55.283Z,62.2
2018-08-24T11:10:56.027Z,61.6
2018-08-24T11:11:56.760Z,62.6
2018-08-24T11:12:57.495Z,62.6
2018-08-24T11:13:58.542Z,61.4
2018-08-24T11:14:59.276Z,60.0
2018-08-24T11:16:00.013Z,59.1
2018-08-24T11:17:00.752Z,59.1
2018-08-24T11:18:01.488Z,57.3
2018-08-24T11:19:02.217Z,57.0
2018-08-24T11:20:02.963Z,56.9
2018-08-24T11:21:03.701Z,57.0
2018-08-24T11:22:04.440Z,56.7
2018-08-24T11:23:05.275Z,56.8
2018-08-24T11:24:05.902Z,56.1
2018-08-24T11:25:06.624Z,54.8
2018-08-24T11:26:07.349Z,54.3
2018-08-24T11:27:08.120Z,52.4
2018-08-24T11:28:08.858Z,50.7
2018-08-24T11:29:09.703Z,49.3
2018-08-24T11:30:10.373Z,48.8
2018-08-24T11:31:11.111Z,47.2
2018-08-24T11:32:11.840Z,48.0
2018-08-24T11:33:12.575Z,48.6
2018-08-24T11:34:13.356Z,48.4
2018-08-24T11:35:14.098Z,49.4
2018-08-24T11:36:14.879Z,49.1
2018-08-24T11:37:15.556Z,50.0
2018-08-24T11:38:17.045Z,51.1
2018-08-24T11:39:18.024Z,50.0
2018-08-24T11:40:18.817Z,50.0
2018-08-24T11:41:19.968Z,49.1
2018-08-24T11:42:21.086Z,48.2
2018-08-24T11:43:22.226Z,47.6
2018-08-24T11:44:23.334Z,46.2
2018-08-24T11:45:24.423Z,45.6
2018-08-24T11:46:25.157Z,44.4
2018-08-24T11:47:25.884Z,43.8
2018-08-24T11:48:26.618Z,43.9
2018-08-24T11:49:27.357Z,42.1
2018-08-24T11:50:28.092Z,41.8
2018-08-24T11:51:28.810Z,42.7
2018-08-24T11:52:29.906Z,42.6
2018-08-24T11:53:30.898Z,42.0
2018-08-24T11:54:31.647Z,42.0
2018-08-24T11:55:32.365Z,42.4
2018-08-24T11:56:33.111Z,44.6
2018-08-24T11:57:34.139Z,45.3
2018-08-24T11:58:35.128Z,45.9
2018-08-24T11:59:35.857Z,45.4
2018-08-24T12:00:36.608Z,45.9
2018-08-24T12:01:37.336Z,45.1
2018-08-24T12:02:38.135Z,44.8
2018-08-24T12:03:38.881Z,45.5
2018-08-24T12:04:39.634Z,44.3
2018-08-24T12:05:40.365Z,43.3
2018-08-24T12:06:41.095Z,43.6
2018-08-24T12:07:41.844Z,42.5
2018-08-24T12:08:42.581Z,41.6
2018-08-24T12:09:43.303Z,42.0
2018-08-24T12:10:44.049Z,41.8
2018-08-24T12:11:44.788Z,40.1
2018-08-24T12:12:45.519Z,38.9
2018-08-24T12:13:46.290Z,38.9
2018-08-24T12:14:46.994Z,38.7
2018-08-24T12:15:47.719Z,38.6
2018-08-24T12:16:48.454Z,36.6
2018-08-24T12:17:49.182Z,38.1
2018-08-24T12:18:49.932Z,37.5
2018-08-24T12:19:50.679Z,38.1
2018-08-24T12:20:51.720Z,38.7
2018-08-24T12:21:52.419Z,39.0
2018-08-24T12:22:53.142Z,38.7
2018-08-24T12:23:53.865Z,39.0
2018-08-24T12:24:54.610Z,36.4
2018-08-24T12:25:55.325Z,35.4
2018-08-24T12:26:56.073Z,36.1
2018-08-24T12:27:56.795Z,37.5
2018-08-24T12:28:57.546Z,36.6
2018-08-24T12:29:58.272Z,37.5
2018-08-24T12:30:59.090Z,34.5
2018-08-24T12:31:59.742Z,35.2
2018-08-24T12:33:00.488Z,35.4
2018-08-24T12:34:01.215Z,33.9
2018-08-24T12:35:01.953Z,33.3
2018-08-24T12:36:02.687Z,32.9
2018-08-24T12:37:03.442Z,33.7
2018-08-24T12:38:04.320Z,36.2
2018-08-24T12:39:04.994Z,35.5
2018-08-24T12:40:05.724Z,34.3
2018-08-24T12:41:06.480Z,35.5
2018-08-24T12:42:07.200Z,33.8
2018-08-24T12:43:07.955Z,34.8
2018-08-24T12:44:08.690Z,34.7
2018-08-24T12:45:09.435Z,34.1
2018-08-24T12:46:10.182Z,33.7
2018-08-24T12:47:10.900Z,33.6
2018-08-24T12:48:11.885Z,32.7
2018-08-24T12:49:12.617Z,30.3
2018-08-24T12:50:13.343Z,31.8
2018-08-24T12:51:14.100Z,33.1
2018-08-24T12:52:14.861Z,32.7
2018-08-24T12:53:15.584Z,31.6
2018-08-24T12:54:16.306Z,31.4
2018-08-24T12:55:17.061Z,33.0
2018-08-24T12:56:17.799Z,33.6
2018-08-24T12:57:18.539Z,33.2
2018-08-24T12:58:19.331Z,31.9
2018-08-24T12:59:20.061Z,33.9
2018-08-24T13:00:20.788Z,32.6
2018-08-24T13:01:21.535Z,33.4
2018-08-24T13:02:22.268Z,33.5
2018-08-24T13:03:23.007Z,32.6
2018-08-24T13:04:23.764Z,32.3
2018-08-24T13:05:24.497Z,31.9
2018-08-24T13:06:25.232Z,31.3
2018-08-24T13:07:25.962Z,31.7
2018-08-24T13:08:26.707Z,31.5
2018-08-24T13:09:27.439Z,31.6
2018-08-24T13:10:28.532Z,32.3
2018-08-24T13:11:29.267Z,31.4
2018-08-24T13:12:30.004Z,31.2
2018-08-24T13:13:30.743Z,31.7
2018-08-24T13:14:31.481Z,33.0
2018-08-24T13:15:32.272Z,33.1
2018-08-24T13:16:33.028Z,32.7
2018-08-24T13:17:33.810Z,33.0
2018-08-24T13:18:34.557Z,31.9
2018-08-24T13:19:35.287Z,31.6
2018-08-24T13:20:36.024Z,31.8
2018-08-24T13:21:36.830Z,31.7
2018-08-24T13:22:37.498Z,32.9
2018-08-24T13:23:38.236Z,33.7
2018-08-24T13:24:38.979Z,34.7
2018-08-24T13:25:39.706Z,36.3
2018-08-24T13:26:40.465Z,37.6
2018-08-24T13:27:41.187Z,38.1
2018-08-24T13:28:41.925Z,36.9
2018-08-24T13:29:42.659Z,35.9
2018-08-24T13:30:43.412Z,35.6
2018-08-24T13:31:44.182Z,36.0
2018-08-24T13:32:44.939Z,36.0
2018-08-24T13:33:45.669Z,35.6
2018-08-24T13:34:46.410Z,35.1
2018-08-24T13:35:47.146Z,34.5
2018-08-24T13:36:48.222Z,33.9
2018-08-24T13:37:48.955Z,34.8
2018-08-24T13:38:49.723Z,35.6
2018-08-24T13:39:50.440Z,35.3
2018-08-24T13:40:51.436Z,34.9
2018-08-24T13:41:52.180Z,34.1
2018-08-24T13:42:52.911Z,34.0
2018-08-24T13:43:53.644Z,34.1
2018-08-24T13:44:54.501Z,34.1
2018-08-24T13:45:55.129Z,34.3
2018-08-24T13:46:55.908Z,33.7
2018-08-24T13:47:56.649Z,33.7
2018-08-24T13:48:57.387Z,33.9
2018-08-24T13:49:58.121Z,35.1
2018-08-24T13:50:58.858Z,35.2
2018-08-24T13:51:59.645Z,33.8
2018-08-24T13:53:00.380Z,34.1
2018-08-24T13:54:01.110Z,32.8
2018-08-24T13:55:01.855Z,32.5
2018-08-24T13:56:02.592Z,33.7
2018-08-24T13:57:03.330Z,33.7
2018-08-24T13:58:04.068Z,33.1
2018-08-24T13:59:04.791Z,33.5
2018-08-24T14:00:05.673Z,33.6
2018-08-24T14:01:06.546Z,33.6
2018-08-24T14:02:07.278Z,34.3
2018-08-24T14:03:08.018Z,34.8
2018-08-24T14:04:08.745Z,35.3
2018-08-24T14:05:09.493Z,36.5
2018-08-24T14:06:10.225Z,36.5
2018-08-24T14:07:11.197Z,37.8
2018-08-24T14:08:11.950Z,37.8
2018-08-24T14:09:12.960Z,37.2
2018-08-24T14:10:13.687Z,37.1
2018-08-24T14:11:14.433Z,37.1
2018-08-24T14:12:15.160Z,38.8
2018-08-24T14:13:15.927Z,39.1
2018-08-24T14:14:16.649Z,38.8
2018-08-24T14:15:17.396Z,39.1
2018-08-24T14:16:18.148Z,38.8
2018-08-24T14:17:18.876Z,38.9
2018-08-24T14:18:19.614Z,38.8
2018-08-24T14:19:20.383Z,39.1
2018-08-24T14:20:21.118Z,39.2
2018-08-24T14:21:21.847Z,39.5
2018-08-24T14:22:22.588Z,39.4
2018-08-24T14:23:23.330Z,40.2
2018-08-24T14:24:24.383Z,39.9
2018-08-24T14:25:25.376Z,39.9
2018-08-24T14:26:26.110Z,39.4
2018-08-24T14:27:26.815Z,40.7
2018-08-24T14:28:27.564Z,40.7
2018-08-24T14:29:28.644Z,41.1
2018-08-24T14:30:29.384Z,41.3
2018-08-24T14:31:30.158Z,41.9
2018-08-24T14:32:30.851Z,42.0
2018-08-24T14:33:31.600Z,42.4
2018-08-24T14:34:32.336Z,42.1
2018-08-24T14:35:33.091Z,41.5
2018-08-24T14:36:33.831Z,42.0
2018-08-24T14:37:34.571Z,42.3
2018-08-24T14:38:35.293Z,43.1
2018-08-24T14:39:36.041Z,43.1
2018-08-24T14:40:36.809Z,42.8
2018-08-24T14:41:37.552Z,42.7
2018-08-24T14:42:38.288Z,42.7
2018-08-24T14:43:39.037Z,42.6
2018-08-24T14:44:40.059Z,41.5
2018-08-24T14:45:40.797Z,40.8
2018-08-24T14:46:41.590Z,41.4
2018-08-24T14:48:25.087Z,42.5
2018-08-24T14:49:25.812Z,42.1
2018-08-24T14:50:26.566Z,42.6
2018-08-24T14:52:42.911Z,43.5
2018-08-24T14:53:43.901Z,43.2
2018-08-24T14:54:44.629Z,43.3